sensor_id;sensor_type;location;lat;lon;timestamp;P1;durP1;ratioP1;P2;durP2;ratioP2
35540;SDS011;21650;48.840;9.162;2022-09-17T00:01:04;1.07;;;0.70;;
35540;SDS011;21650;48.840;9.162;2022-09-17T00:03:31;1.57;;;0.60;;
35540;SDS011;21650;48.840;9.162;2022-09-17T00:08:30;1.40;;;0.77;;
35540;SDS011;21650;48.840;9.162;2022-09-17T00:10:56;1.80;;;0.67;;
35540;SDS011;21650;48.840;9.162;2022-09-17T00:13:22;1.20;;;0.70;;
35540;SDS011;21650;48.840;9.162;2022-09-17T00:15:48;1.80;;;0.90;;
35540;SDS011;21650;48.840;9.162;2022-09-17T00:18:16;2.47;;;0.90;;
35540;SDS011;21650;48.840;9.162;2022-09-17T00:20:43;1.37;;;0.87;;
35540;SDS011;21650;48.840;9.162;2022-09-17T00:23:11;2.00;;;0.70;;
35540;SDS011;21650;48.840;9.162;2022-09-17T00:25:38;0.73;;;0.73;;
35540;SDS011;21650;48.840;9.162;2022-09-17T00:28:08;1.10;;;0.80;;
35540;SDS011;21650;48.840;9.162;2022-09-17T00:30:34;3.63;;;0.80;;
35540;SDS011;21650;48.840;9.162;2022-09-17T00:33:07;4.07;;;0.90;;
35540;SDS011;21650;48.840;9.162;2022-09-17T00:35:36;2.10;;;0.60;;
35540;SDS011;21650;48.840;9.162;2022-09-17T00:38:01;1.67;;;1.20;;
35540;SDS011;21650;48.840;9.162;2022-09-17T00:40:27;1.07;;;0.67;;
35540;SDS011;21650;48.840;9.162;2022-09-17T00:42:53;1.73;;;0.73;;
35540;SDS011;21650;48.840;9.162;2022-09-17T00:45:18;1.13;;;0.93;;
35540;SDS011;21650;48.840;9.162;2022-09-17T00:47:46;2.63;;;0.90;;
35540;SDS011;21650;48.840;9.162;2022-09-17T00:50:21;1.83;;;1.13;;
35540;SDS011;21650;48.840;9.162;2022-09-17T00:52:53;1.40;;;0.90;;
35540;SDS011;21650;48.840;9.162;2022-09-17T00:55:24;3.33;;;1.67;;
35540;SDS011;21650;48.840;9.162;2022-09-17T00:58:05;0.83;;;0.70;;
35540;SDS011;21650;48.840;9.162;2022-09-17T01:00:33;1.47;;;0.77;;
35540;SDS011;21650;48.840;9.162;2022-09-17T01:02:59;1.83;;;0.93;;
35540;SDS011;21650;48.840;9.162;2022-09-17T01:05:37;5.83;;;1.23;;
35540;SDS011;21650;48.840;9.162;2022-09-17T01:08:11;2.03;;;1.03;;
35540;SDS011;21650;48.840;9.162;2022-09-17T01:17:14;2.40;;;0.90;;
35540;SDS011;21650;48.840;9.162;2022-09-17T01:22:41;1.77;;;1.37;;
35540;SDS011;21650;48.840;9.162;2022-09-17T01:25:45;1.40;;;1.00;;
35540;SDS011;21650;48.840;9.162;2022-09-17T01:28:40;3.40;;;1.30;;
35540;SDS011;21650;48.840;9.162;2022-09-17T01:34:22;1.67;;;1.17;;
35540;SDS011;21650;48.840;9.162;2022-09-17T01:37:16;1.87;;;1.10;;
35540;SDS011;21650;48.840;9.162;2022-09-17T01:39:58;3.10;;;1.27;;
35540;SDS011;21650;48.840;9.162;2022-09-17T01:45:11;3.40;;;1.13;;
35540;SDS011;21650;48.840;9.162;2022-09-17T01:50:20;1.47;;;1.20;;
35540;SDS011;21650;48.840;9.162;2022-09-17T01:53:00;3.13;;;1.33;;
35540;SDS011;21650;48.840;9.162;2022-09-17T01:55:30;2.93;;;1.20;;
35540;SDS011;21650;48.840;9.162;2022-09-17T01:58:04;3.67;;;1.20;;
35540;SDS011;21650;48.840;9.162;2022-09-17T02:00:38;2.37;;;1.10;;
35540;SDS011;21650;48.840;9.162;2022-09-17T02:03:10;1.43;;;1.30;;
35540;SDS011;21650;48.840;9.162;2022-09-17T02:05:58;1.27;;;1.17;;
35540;SDS011;21650;48.840;9.162;2022-09-17T02:08:29;3.13;;;1.40;;
35540;SDS011;21650;48.840;9.162;2022-09-17T02:11:08;3.63;;;1.53;;
35540;SDS011;21650;48.840;9.162;2022-09-17T02:26:35;3.23;;;1.07;;
35540;SDS011;21650;48.840;9.162;2022-09-17T02:29:08;1.67;;;1.17;;
35540;SDS011;21650;48.840;9.162;2022-09-17T02:31:40;2.60;;;1.33;;
35540;SDS011;21650;48.840;9.162;2022-09-17T02:34:06;1.10;;;1.00;;
35540;SDS011;21650;48.840;9.162;2022-09-17T02:36:34;1.67;;;0.93;;
35540;SDS011;21650;48.840;9.162;2022-09-17T02:39:00;2.93;;;1.10;;
35540;SDS011;21650;48.840;9.162;2022-09-17T02:41:32;1.60;;;1.20;;
35540;SDS011;21650;48.840;9.162;2022-09-17T02:50:28;4.87;;;1.40;;
35540;SDS011;21650;48.840;9.162;2022-09-17T02:55:41;1.87;;;0.90;;
35540;SDS011;21650;48.840;9.162;2022-09-17T02:58:31;3.10;;;1.30;;
35540;SDS011;21650;48.840;9.162;2022-09-17T03:01:12;3.87;;;1.43;;
35540;SDS011;21650;48.840;9.162;2022-09-17T03:03:45;2.53;;;1.00;;
35540;SDS011;21650;48.840;9.162;2022-09-17T03:06:15;3.50;;;1.30;;
35540;SDS011;21650;48.840;9.162;2022-09-17T03:08:42;3.23;;;1.30;;
35540;SDS011;21650;48.840;9.162;2022-09-17T03:11:09;2.50;;;1.17;;
35540;SDS011;21650;48.840;9.162;2022-09-17T03:13:37;1.93;;;0.83;;
35540;SDS011;21650;48.840;9.162;2022-09-17T03:16:03;5.40;;;1.10;;
35540;SDS011;21650;48.840;9.162;2022-09-17T03:18:29;3.57;;;1.50;;
35540;SDS011;21650;48.840;9.162;2022-09-17T03:20:55;2.07;;;1.20;;
35540;SDS011;21650;48.840;9.162;2022-09-17T03:23:21;4.53;;;1.50;;
35540;SDS011;21650;48.840;9.162;2022-09-17T03:25:47;2.23;;;1.30;;
35540;SDS011;21650;48.840;9.162;2022-09-17T03:28:16;2.40;;;1.40;;
35540;SDS011;21650;48.840;9.162;2022-09-17T03:30:42;8.13;;;1.60;;
35540;SDS011;21650;48.840;9.162;2022-09-17T03:33:09;3.57;;;1.60;;
35540;SDS011;21650;48.840;9.162;2022-09-17T03:35:35;2.80;;;1.47;;
35540;SDS011;21650;48.840;9.162;2022-09-17T03:38:01;2.03;;;1.07;;
35540;SDS011;21650;48.840;9.162;2022-09-17T03:40:27;4.60;;;2.00;;
35540;SDS011;21650;48.840;9.162;2022-09-17T03:42:53;4.70;;;1.43;;
35540;SDS011;21650;48.840;9.162;2022-09-17T03:45:18;3.20;;;1.60;;
35540;SDS011;21650;48.840;9.162;2022-09-17T03:47:44;4.90;;;1.37;;
35540;SDS011;21650;48.840;9.162;2022-09-17T03:50:10;4.70;;;1.50;;
35540;SDS011;21650;48.840;9.162;2022-09-17T03:52:35;5.57;;;1.50;;
35540;SDS011;21650;48.840;9.162;2022-09-17T03:55:02;1.70;;;1.23;;
35540;SDS011;21650;48.840;9.162;2022-09-17T03:57:28;5.30;;;1.20;;
35540;SDS011;21650;48.840;9.162;2022-09-17T03:59:53;5.70;;;1.37;;
35540;SDS011;21650;48.840;9.162;2022-09-17T04:02:19;3.67;;;1.20;;
35540;SDS011;21650;48.840;9.162;2022-09-17T04:04:45;2.43;;;1.70;;
35540;SDS011;21650;48.840;9.162;2022-09-17T04:07:10;4.97;;;1.63;;
35540;SDS011;21650;48.840;9.162;2022-09-17T04:09:36;3.90;;;1.33;;
35540;SDS011;21650;48.840;9.162;2022-09-17T04:12:02;3.20;;;1.27;;
35540;SDS011;21650;48.840;9.162;2022-09-17T04:14:28;3.27;;;1.77;;
35540;SDS011;21650;48.840;9.162;2022-09-17T04:16:53;3.53;;;1.77;;
35540;SDS011;21650;48.840;9.162;2022-09-17T04:19:19;2.63;;;1.80;;
35540;SDS011;21650;48.840;9.162;2022-09-17T04:21:45;2.80;;;1.33;;
35540;SDS011;21650;48.840;9.162;2022-09-17T04:24:10;5.47;;;1.63;;
35540;SDS011;21650;48.840;9.162;2022-09-17T04:26:36;3.43;;;1.53;;
35540;SDS011;21650;48.840;9.162;2022-09-17T04:29:01;2.27;;;1.20;;
35540;SDS011;21650;48.840;9.162;2022-09-17T04:31:27;4.27;;;1.23;;
35540;SDS011;21650;48.840;9.162;2022-09-17T04:33:53;2.70;;;1.30;;
35540;SDS011;21650;48.840;9.162;2022-09-17T04:36:19;6.53;;;1.70;;
35540;SDS011;21650;48.840;9.162;2022-09-17T04:38:47;3.60;;;1.23;;
35540;SDS011;21650;48.840;9.162;2022-09-17T04:41:13;4.47;;;2.07;;
35540;SDS011;21650;48.840;9.162;2022-09-17T04:43:39;2.73;;;1.67;;
35540;SDS011;21650;48.840;9.162;2022-09-17T04:46:04;5.50;;;1.53;;
35540;SDS011;21650;48.840;9.162;2022-09-17T04:48:30;4.90;;;1.63;;
35540;SDS011;21650;48.840;9.162;2022-09-17T04:50:56;4.90;;;1.93;;
35540;SDS011;21650;48.840;9.162;2022-09-17T04:53:22;4.40;;;1.57;;
35540;SDS011;21650;48.840;9.162;2022-09-17T04:55:48;4.67;;;2.33;;
35540;SDS011;21650;48.840;9.162;2022-09-17T04:58:13;5.00;;;2.03;;
35540;SDS011;21650;48.840;9.162;2022-09-17T05:00:39;4.37;;;2.07;;
35540;SDS011;21650;48.840;9.162;2022-09-17T05:03:06;4.20;;;2.00;;
35540;SDS011;21650;48.840;9.162;2022-09-17T05:05:32;6.50;;;1.57;;
35540;SDS011;21650;48.840;9.162;2022-09-17T05:07:58;3.07;;;2.07;;
35540;SDS011;21650;48.840;9.162;2022-09-17T05:10:24;2.80;;;1.87;;
35540;SDS011;21650;48.840;9.162;2022-09-17T05:12:50;4.30;;;1.43;;
35540;SDS011;21650;48.840;9.162;2022-09-17T05:15:17;4.17;;;1.87;;
35540;SDS011;21650;48.840;9.162;2022-09-17T05:17:44;2.30;;;1.87;;
35540;SDS011;21650;48.840;9.162;2022-09-17T05:20:10;2.93;;;1.80;;
35540;SDS011;21650;48.840;9.162;2022-09-17T05:22:39;4.93;;;2.00;;
35540;SDS011;21650;48.840;9.162;2022-09-17T05:25:10;5.93;;;2.10;;
35540;SDS011;21650;48.840;9.162;2022-09-17T05:27:37;5.83;;;2.10;;
35540;SDS011;21650;48.840;9.162;2022-09-17T05:30:03;6.23;;;1.87;;
35540;SDS011;21650;48.840;9.162;2022-09-17T05:32:29;5.80;;;1.83;;
35540;SDS011;21650;48.840;9.162;2022-09-17T05:34:55;4.63;;;1.70;;
35540;SDS011;21650;48.840;9.162;2022-09-17T05:37:21;4.83;;;1.57;;
35540;SDS011;21650;48.840;9.162;2022-09-17T05:39:46;3.70;;;1.67;;
35540;SDS011;21650;48.840;9.162;2022-09-17T05:42:12;6.63;;;2.17;;
35540;SDS011;21650;48.840;9.162;2022-09-17T05:44:38;4.43;;;1.97;;
35540;SDS011;21650;48.840;9.162;2022-09-17T05:47:03;3.13;;;1.73;;
35540;SDS011;21650;48.840;9.162;2022-09-17T05:49:29;4.70;;;2.00;;
35540;SDS011;21650;48.840;9.162;2022-09-17T05:51:55;5.17;;;2.17;;
35540;SDS011;21650;48.840;9.162;2022-09-17T05:54:20;6.13;;;2.30;;
35540;SDS011;21650;48.840;9.162;2022-09-17T05:56:46;3.07;;;1.90;;
35540;SDS011;21650;48.840;9.162;2022-09-17T05:59:12;3.90;;;1.87;;
35540;SDS011;21650;48.840;9.162;2022-09-17T06:01:39;4.53;;;2.37;;
35540;SDS011;21650;48.840;9.162;2022-09-17T06:04:05;6.40;;;2.00;;
35540;SDS011;21650;48.840;9.162;2022-09-17T06:06:30;7.27;;;2.40;;
35540;SDS011;21650;48.840;9.162;2022-09-17T06:08:59;5.17;;;2.37;;
35540;SDS011;21650;48.840;9.162;2022-09-17T06:11:25;3.83;;;2.30;;
35540;SDS011;21650;48.840;9.162;2022-09-17T06:13:54;5.40;;;2.00;;
35540;SDS011;21650;48.840;9.162;2022-09-17T06:16:20;5.43;;;2.47;;
35540;SDS011;21650;48.840;9.162;2022-09-17T06:18:47;3.53;;;2.47;;
35540;SDS011;21650;48.840;9.162;2022-09-17T06:21:14;3.17;;;2.10;;
35540;SDS011;21650;48.840;9.162;2022-09-17T06:23:41;4.67;;;1.80;;
35540;SDS011;21650;48.840;9.162;2022-09-17T06:26:07;6.87;;;2.40;;
35540;SDS011;21650;48.840;9.162;2022-09-17T06:28:34;3.83;;;2.07;;
35540;SDS011;21650;48.840;9.162;2022-09-17T06:31:00;6.73;;;2.60;;
35540;SDS011;21650;48.840;9.162;2022-09-17T06:33:28;4.73;;;2.10;;
35540;SDS011;21650;48.840;9.162;2022-09-17T06:35:55;10.17;;;2.93;;
35540;SDS011;21650;48.840;9.162;2022-09-17T06:38:24;6.23;;;2.67;;
35540;SDS011;21650;48.840;9.162;2022-09-17T06:40:50;5.70;;;2.00;;
35540;SDS011;21650;48.840;9.162;2022-09-17T06:43:16;7.87;;;2.17;;
35540;SDS011;21650;48.840;9.162;2022-09-17T06:45:42;4.90;;;2.13;;
35540;SDS011;21650;48.840;9.162;2022-09-17T06:48:08;2.80;;;2.10;;
35540;SDS011;21650;48.840;9.162;2022-09-17T06:50:33;8.17;;;2.33;;
35540;SDS011;21650;48.840;9.162;2022-09-17T06:52:59;5.57;;;1.70;;
35540;SDS011;21650;48.840;9.162;2022-09-17T06:55:25;3.83;;;1.93;;
35540;SDS011;21650;48.840;9.162;2022-09-17T06:57:50;4.53;;;2.07;;
35540;SDS011;21650;48.840;9.162;2022-09-17T07:00:16;6.27;;;2.47;;
35540;SDS011;21650;48.840;9.162;2022-09-17T07:02:42;2.00;;;1.90;;
35540;SDS011;21650;48.840;9.162;2022-09-17T07:05:07;8.40;;;2.10;;
35540;SDS011;21650;48.840;9.162;2022-09-17T07:07:33;4.57;;;2.47;;
35540;SDS011;21650;48.840;9.162;2022-09-17T07:10:05;4.50;;;2.50;;
35540;SDS011;21650;48.840;9.162;2022-09-17T07:12:31;4.63;;;2.30;;
35540;SDS011;21650;48.840;9.162;2022-09-17T07:14:57;5.73;;;2.17;;
35540;SDS011;21650;48.840;9.162;2022-09-17T07:17:22;2.30;;;2.03;;
35540;SDS011;21650;48.840;9.162;2022-09-17T07:19:48;3.27;;;1.90;;
35540;SDS011;21650;48.840;9.162;2022-09-17T07:22:14;5.27;;;2.30;;
35540;SDS011;21650;48.840;9.162;2022-09-17T07:24:40;4.80;;;2.53;;
35540;SDS011;21650;48.840;9.162;2022-09-17T07:27:06;5.07;;;1.83;;
35540;SDS011;21650;48.840;9.162;2022-09-17T07:29:32;4.20;;;2.77;;
35540;SDS011;21650;48.840;9.162;2022-09-17T07:31:57;5.53;;;2.17;;
35540;SDS011;21650;48.840;9.162;2022-09-17T07:34:23;5.60;;;2.40;;
35540;SDS011;21650;48.840;9.162;2022-09-17T07:36:52;3.43;;;2.03;;
35540;SDS011;21650;48.840;9.162;2022-09-17T07:39:17;6.13;;;2.43;;
35540;SDS011;21650;48.840;9.162;2022-09-17T07:41:43;4.87;;;2.40;;
35540;SDS011;21650;48.840;9.162;2022-09-17T07:44:09;4.47;;;2.60;;
35540;SDS011;21650;48.840;9.162;2022-09-17T07:46:34;4.57;;;3.13;;
35540;SDS011;21650;48.840;9.162;2022-09-17T07:49:00;7.40;;;3.10;;
35540;SDS011;21650;48.840;9.162;2022-09-17T07:51:26;3.67;;;2.53;;
35540;SDS011;21650;48.840;9.162;2022-09-17T07:53:55;6.43;;;2.70;;
35540;SDS011;21650;48.840;9.162;2022-09-17T07:56:23;4.57;;;2.90;;
35540;SDS011;21650;48.840;9.162;2022-09-17T07:58:50;6.90;;;2.80;;
35540;SDS011;21650;48.840;9.162;2022-09-17T08:01:16;4.03;;;2.53;;
35540;SDS011;21650;48.840;9.162;2022-09-17T08:03:46;6.33;;;2.50;;
35540;SDS011;21650;48.840;9.162;2022-09-17T08:06:14;2.80;;;2.50;;
35540;SDS011;21650;48.840;9.162;2022-09-17T08:08:41;5.20;;;3.17;;
35540;SDS011;21650;48.840;9.162;2022-09-17T08:13:40;3.53;;;2.57;;
35540;SDS011;21650;48.840;9.162;2022-09-17T08:16:07;4.20;;;2.97;;
35540;SDS011;21650;48.840;9.162;2022-09-17T08:18:37;7.17;;;3.37;;
35540;SDS011;21650;48.840;9.162;2022-09-17T08:21:04;8.47;;;2.93;;
35540;SDS011;21650;48.840;9.162;2022-09-17T08:23:32;5.87;;;2.93;;
35540;SDS011;21650;48.840;9.162;2022-09-17T08:25:59;7.47;;;2.70;;
35540;SDS011;21650;48.840;9.162;2022-09-17T08:28:26;7.67;;;3.23;;
35540;SDS011;21650;48.840;9.162;2022-09-17T08:30:53;6.77;;;2.83;;
35540;SDS011;21650;48.840;9.162;2022-09-17T08:33:23;13.10;;;3.37;;
35540;SDS011;21650;48.840;9.162;2022-09-17T08:35:52;5.67;;;2.93;;
35540;SDS011;21650;48.840;9.162;2022-09-17T08:38:19;10.80;;;2.90;;
35540;SDS011;21650;48.840;9.162;2022-09-17T08:41:19;13.17;;;2.77;;
35540;SDS011;21650;48.840;9.162;2022-09-17T08:44:04;8.77;;;2.63;;
35540;SDS011;21650;48.840;9.162;2022-09-17T08:46:58;7.77;;;3.23;;
35540;SDS011;21650;48.840;9.162;2022-09-17T09:03:27;6.73;;;2.67;;
35540;SDS011;21650;48.840;9.162;2022-09-17T09:05:58;8.37;;;2.50;;
35540;SDS011;21650;48.840;9.162;2022-09-17T09:11:20;10.97;;;2.23;;
35540;SDS011;21650;48.840;9.162;2022-09-17T09:13:52;8.80;;;2.57;;
35540;SDS011;21650;48.840;9.162;2022-09-17T09:16:25;7.13;;;2.43;;
35540;SDS011;21650;48.840;9.162;2022-09-17T09:18:58;5.73;;;2.57;;
35540;SDS011;21650;48.840;9.162;2022-09-17T09:21:38;6.17;;;2.13;;
35540;SDS011;21650;48.840;9.162;2022-09-17T09:32:16;6.07;;;2.53;;
35540;SDS011;21650;48.840;9.162;2022-09-17T09:34:46;6.83;;;2.23;;
35540;SDS011;21650;48.840;9.162;2022-09-17T09:39:45;4.07;;;2.20;;
35540;SDS011;21650;48.840;9.162;2022-09-17T09:42:15;7.20;;;2.60;;
35540;SDS011;21650;48.840;9.162;2022-09-17T09:45:02;10.47;;;2.67;;
35540;SDS011;21650;48.840;9.162;2022-09-17T09:47:43;9.53;;;2.53;;
35540;SDS011;21650;48.840;9.162;2022-09-17T09:56:36;5.70;;;2.50;;
35540;SDS011;21650;48.840;9.162;2022-09-17T09:59:11;9.83;;;2.23;;
35540;SDS011;21650;48.840;9.162;2022-09-17T10:01:39;3.67;;;1.60;;
35540;SDS011;21650;48.840;9.162;2022-09-17T10:04:22;6.40;;;2.37;;
35540;SDS011;21650;48.840;9.162;2022-09-17T10:06:51;6.90;;;2.07;;
35540;SDS011;21650;48.840;9.162;2022-09-17T10:09:19;4.80;;;2.67;;
35540;SDS011;21650;48.840;9.162;2022-09-17T10:12:19;5.93;;;2.37;;
35540;SDS011;21650;48.840;9.162;2022-09-17T10:14:41;4.87;;;3.20;;
35540;SDS011;21650;48.840;9.162;2022-09-17T10:19:43;3.13;;;1.80;;
35540;SDS011;21650;48.840;9.162;2022-09-17T10:22:17;4.83;;;2.33;;
35540;SDS011;21650;48.840;9.162;2022-09-17T10:24:47;2.60;;;1.53;;
35540;SDS011;21650;48.840;9.162;2022-09-17T10:27:15;8.03;;;3.33;;
35540;SDS011;21650;48.840;9.162;2022-09-17T10:29:46;4.77;;;1.73;;
35540;SDS011;21650;48.840;9.162;2022-09-17T10:32:21;5.80;;;1.83;;
35540;SDS011;21650;48.840;9.162;2022-09-17T10:37:43;2.73;;;1.60;;
35540;SDS011;21650;48.840;9.162;2022-09-17T10:43:14;8.27;;;2.60;;
35540;SDS011;21650;48.840;9.162;2022-09-17T10:45:38;5.63;;;1.63;;
35540;SDS011;21650;48.840;9.162;2022-09-17T10:48:12;3.80;;;1.70;;
35540;SDS011;21650;48.840;9.162;2022-09-17T10:50:40;2.80;;;1.30;;
35540;SDS011;21650;48.840;9.162;2022-09-17T10:53:16;4.97;;;1.27;;
35540;SDS011;21650;48.840;9.162;2022-09-17T10:58:51;3.53;;;1.23;;
35540;SDS011;21650;48.840;9.162;2022-09-17T11:15:01;3.77;;;1.30;;
35540;SDS011;21650;48.840;9.162;2022-09-17T11:17:53;7.47;;;1.73;;
35540;SDS011;21650;48.840;9.162;2022-09-17T11:26:51;4.80;;;1.70;;
35540;SDS011;21650;48.840;9.162;2022-09-17T11:31:57;2.67;;;1.17;;
35540;SDS011;21650;48.840;9.162;2022-09-17T11:34:39;7.70;;;1.40;;
35540;SDS011;21650;48.840;9.162;2022-09-17T11:37:17;4.83;;;1.43;;
35540;SDS011;21650;48.840;9.162;2022-09-17T11:39:59;8.27;;;1.10;;
35540;SDS011;21650;48.840;9.162;2022-09-17T11:42:35;6.10;;;1.27;;
35540;SDS011;21650;48.840;9.162;2022-09-17T11:45:19;3.60;;;1.20;;
35540;SDS011;21650;48.840;9.162;2022-09-17T11:48:09;4.67;;;1.13;;
35540;SDS011;21650;48.840;9.162;2022-09-17T11:50:48;4.17;;;1.30;;
35540;SDS011;21650;48.840;9.162;2022-09-17T11:53:42;3.20;;;1.20;;
35540;SDS011;21650;48.840;9.162;2022-09-17T11:58:48;3.27;;;1.30;;
35540;SDS011;21650;48.840;9.162;2022-09-17T12:06:55;2.07;;;0.97;;
35540;SDS011;21650;48.840;9.162;2022-09-17T12:09:28;6.37;;;2.17;;
35540;SDS011;21650;48.840;9.162;2022-09-17T12:12:04;5.37;;;1.80;;
35540;SDS011;21650;48.840;9.162;2022-09-17T12:17:16;4.27;;;1.97;;
35540;SDS011;21650;48.840;9.162;2022-09-17T12:20:22;4.47;;;1.80;;
35540;SDS011;21650;48.840;9.162;2022-09-17T12:22:54;5.83;;;2.00;;
35540;SDS011;21650;48.840;9.162;2022-09-17T12:25:22;4.43;;;1.57;;
35540;SDS011;21650;48.840;9.162;2022-09-17T12:30:28;5.13;;;1.90;;
35540;SDS011;21650;48.840;9.162;2022-09-17T12:36:17;5.40;;;1.87;;
35540;SDS011;21650;48.840;9.162;2022-09-17T12:39:30;2.20;;;1.43;;
35540;SDS011;21650;48.840;9.162;2022-09-17T12:42:16;2.50;;;1.63;;
35540;SDS011;21650;48.840;9.162;2022-09-17T12:44:48;4.27;;;1.60;;
35540;SDS011;21650;48.840;9.162;2022-09-17T12:47:47;6.33;;;1.57;;
35540;SDS011;21650;48.840;9.162;2022-09-17T12:53:08;5.27;;;1.70;;
35540;SDS011;21650;48.840;9.162;2022-09-17T12:56:00;4.20;;;1.20;;
35540;SDS011;21650;48.840;9.162;2022-09-17T12:59:12;2.37;;;1.37;;
35540;SDS011;21650;48.840;9.162;2022-09-17T13:02:03;3.10;;;1.00;;
35540;SDS011;21650;48.840;9.162;2022-09-17T13:10:08;1.67;;;0.97;;
35540;SDS011;21650;48.840;9.162;2022-09-17T13:13:00;3.30;;;1.00;;
35540;SDS011;21650;48.840;9.162;2022-09-17T13:15:42;2.63;;;0.90;;
35540;SDS011;21650;48.840;9.162;2022-09-17T13:18:19;7.17;;;1.10;;
35540;SDS011;21650;48.840;9.162;2022-09-17T13:23:53;2.30;;;0.93;;
35540;SDS011;21650;48.840;9.162;2022-09-17T13:26:20;4.87;;;1.10;;
35540;SDS011;21650;48.840;9.162;2022-09-17T13:28:56;1.97;;;0.90;;
35540;SDS011;21650;48.840;9.162;2022-09-17T13:31:45;2.53;;;1.00;;
35540;SDS011;21650;48.840;9.162;2022-09-17T13:36:52;2.30;;;0.70;;
35540;SDS011;21650;48.840;9.162;2022-09-17T13:44:34;1.97;;;0.80;;
35540;SDS011;21650;48.840;9.162;2022-09-17T13:47:09;0.57;;;0.57;;
35540;SDS011;21650;48.840;9.162;2022-09-17T13:49:49;1.43;;;1.10;;
35540;SDS011;21650;48.840;9.162;2022-09-17T13:52:29;4.20;;;1.50;;
35540;SDS011;21650;48.840;9.162;2022-09-17T13:55:00;1.37;;;0.70;;
35540;SDS011;21650;48.840;9.162;2022-09-17T13:57:27;2.43;;;1.30;;
35540;SDS011;21650;48.840;9.162;2022-09-17T13:59:57;4.13;;;1.13;;
35540;SDS011;21650;48.840;9.162;2022-09-17T14:02:26;2.83;;;0.80;;
35540;SDS011;21650;48.840;9.162;2022-09-17T14:04:54;2.00;;;0.77;;
35540;SDS011;21650;48.840;9.162;2022-09-17T14:07:45;1.43;;;0.70;;
35540;SDS011;21650;48.840;9.162;2022-09-17T14:23:44;3.00;;;0.93;;
35540;SDS011;21650;48.840;9.162;2022-09-17T14:26:27;2.30;;;1.00;;
35540;SDS011;21650;48.840;9.162;2022-09-17T14:31:54;2.87;;;1.10;;
35540;SDS011;21650;48.840;9.162;2022-09-17T14:34:21;3.93;;;0.90;;
35540;SDS011;21650;48.840;9.162;2022-09-17T14:36:48;2.17;;;1.20;;
35540;SDS011;21650;48.840;9.162;2022-09-17T14:39:19;1.87;;;0.70;;
35540;SDS011;21650;48.840;9.162;2022-09-17T14:41:51;4.77;;;1.20;;
35540;SDS011;21650;48.840;9.162;2022-09-17T14:44:24;2.43;;;0.90;;
35540;SDS011;21650;48.840;9.162;2022-09-17T14:46:59;2.03;;;1.07;;
35540;SDS011;21650;48.840;9.162;2022-09-17T14:49:29;6.23;;;2.27;;
35540;SDS011;21650;48.840;9.162;2022-09-17T14:51:57;2.77;;;1.17;;
35540;SDS011;21650;48.840;9.162;2022-09-17T14:54:30;1.97;;;1.10;;
35540;SDS011;21650;48.840;9.162;2022-09-17T14:56:57;3.83;;;0.90;;
35540;SDS011;21650;48.840;9.162;2022-09-17T14:59:41;2.87;;;1.23;;
35540;SDS011;21650;48.840;9.162;2022-09-17T15:08:12;2.17;;;1.00;;
35540;SDS011;21650;48.840;9.162;2022-09-17T15:13:16;4.30;;;1.30;;
35540;SDS011;21650;48.840;9.162;2022-09-17T15:15:51;3.13;;;1.37;;
35540;SDS011;21650;48.840;9.162;2022-09-17T15:18:30;3.67;;;1.00;;
35540;SDS011;21650;48.840;9.162;2022-09-17T15:21:24;2.90;;;1.20;;
35540;SDS011;21650;48.840;9.162;2022-09-17T15:24:42;5.63;;;1.00;;
35540;SDS011;21650;48.840;9.162;2022-09-17T15:26:50;3.97;;;1.30;;
35540;SDS011;21650;48.840;9.162;2022-09-17T15:29:22;7.50;;;1.57;;
35540;SDS011;21650;48.840;9.162;2022-09-17T15:31:52;3.57;;;1.43;;
35540;SDS011;21650;48.840;9.162;2022-09-17T15:34:18;7.27;;;1.50;;
35540;SDS011;21650;48.840;9.162;2022-09-17T15:37:18;2.67;;;1.43;;
35540;SDS011;21650;48.840;9.162;2022-09-17T15:39:41;5.47;;;1.33;;
35540;SDS011;21650;48.840;9.162;2022-09-17T15:42:17;2.70;;;1.03;;
35540;SDS011;21650;48.840;9.162;2022-09-17T15:44:46;5.30;;;2.00;;
35540;SDS011;21650;48.840;9.162;2022-09-17T15:50:19;4.43;;;1.23;;
35540;SDS011;21650;48.840;9.162;2022-09-17T15:52:45;1.47;;;1.23;;
35540;SDS011;21650;48.840;9.162;2022-09-17T15:57:58;3.47;;;1.30;;
35540;SDS011;21650;48.840;9.162;2022-09-17T16:00:25;4.37;;;1.03;;
35540;SDS011;21650;48.840;9.162;2022-09-17T16:02:51;2.97;;;1.20;;
35540;SDS011;21650;48.840;9.162;2022-09-17T16:08:18;2.97;;;1.13;;
35540;SDS011;21650;48.840;9.162;2022-09-17T16:10:45;5.13;;;1.77;;
35540;SDS011;21650;48.840;9.162;2022-09-17T16:13:10;3.67;;;1.23;;
35540;SDS011;21650;48.840;9.162;2022-09-17T16:15:36;1.77;;;1.13;;
35540;SDS011;21650;48.840;9.162;2022-09-17T16:18:02;2.70;;;1.37;;
35540;SDS011;21650;48.840;9.162;2022-09-17T16:20:28;2.23;;;1.03;;
35540;SDS011;21650;48.840;9.162;2022-09-17T16:22:54;2.73;;;1.13;;
35540;SDS011;21650;48.840;9.162;2022-09-17T16:25:24;3.60;;;1.17;;
35540;SDS011;21650;48.840;9.162;2022-09-17T16:28:13;1.53;;;0.90;;
35540;SDS011;21650;48.840;9.162;2022-09-17T16:30:43;4.30;;;1.20;;
35540;SDS011;21650;48.840;9.162;2022-09-17T16:33:12;3.57;;;0.90;;
35540;SDS011;21650;48.840;9.162;2022-09-17T16:35:39;3.00;;;1.27;;
35540;SDS011;21650;48.840;9.162;2022-09-17T16:38:05;1.57;;;1.07;;
35540;SDS011;21650;48.840;9.162;2022-09-17T16:40:31;1.73;;;1.10;;
35540;SDS011;21650;48.840;9.162;2022-09-17T16:43:01;2.57;;;0.90;;
35540;SDS011;21650;48.840;9.162;2022-09-17T16:45:30;3.00;;;1.33;;
35540;SDS011;21650;48.840;9.162;2022-09-17T16:47:56;3.30;;;1.10;;
35540;SDS011;21650;48.840;9.162;2022-09-17T16:50:22;3.87;;;1.50;;
35540;SDS011;21650;48.840;9.162;2022-09-17T16:52:48;2.63;;;1.80;;
35540;SDS011;21650;48.840;9.162;2022-09-17T16:55:14;3.13;;;1.20;;
35540;SDS011;21650;48.840;9.162;2022-09-17T16:57:41;4.13;;;1.13;;
35540;SDS011;21650;48.840;9.162;2022-09-17T17:00:08;4.23;;;1.43;;
35540;SDS011;21650;48.840;9.162;2022-09-17T17:02:40;2.23;;;1.10;;
35540;SDS011;21650;48.840;9.162;2022-09-17T17:05:06;3.93;;;1.07;;
35540;SDS011;21650;48.840;9.162;2022-09-17T17:07:33;2.23;;;1.10;;
35540;SDS011;21650;48.840;9.162;2022-09-17T17:09:59;3.80;;;0.90;;
35540;SDS011;21650;48.840;9.162;2022-09-17T17:12:26;4.30;;;1.83;;
35540;SDS011;21650;48.840;9.162;2022-09-17T17:14:51;5.13;;;1.13;;
35540;SDS011;21650;48.840;9.162;2022-09-17T17:17:17;3.30;;;1.03;;
35540;SDS011;21650;48.840;9.162;2022-09-17T17:19:44;2.67;;;1.20;;
35540;SDS011;21650;48.840;9.162;2022-09-17T17:22:10;3.33;;;1.30;;
35540;SDS011;21650;48.840;9.162;2022-09-17T17:24:39;2.93;;;0.90;;
35540;SDS011;21650;48.840;9.162;2022-09-17T17:27:05;6.33;;;1.10;;
35540;SDS011;21650;48.840;9.162;2022-09-17T17:29:32;5.67;;;1.27;;
35540;SDS011;21650;48.840;9.162;2022-09-17T17:31:59;3.23;;;1.10;;
35540;SDS011;21650;48.840;9.162;2022-09-17T17:34:25;3.60;;;1.50;;
35540;SDS011;21650;48.840;9.162;2022-09-17T17:36:51;2.77;;;1.10;;
35540;SDS011;21650;48.840;9.162;2022-09-17T17:39:16;2.60;;;1.30;;
35540;SDS011;21650;48.840;9.162;2022-09-17T17:41:42;3.37;;;1.37;;
35540;SDS011;21650;48.840;9.162;2022-09-17T17:44:08;3.10;;;1.63;;
35540;SDS011;21650;48.840;9.162;2022-09-17T17:46:36;3.67;;;1.20;;
35540;SDS011;21650;48.840;9.162;2022-09-17T17:49:05;4.17;;;1.30;;
35540;SDS011;21650;48.840;9.162;2022-09-17T17:51:32;3.73;;;1.40;;
35540;SDS011;21650;48.840;9.162;2022-09-17T17:53:58;3.10;;;1.83;;
35540;SDS011;21650;48.840;9.162;2022-09-17T17:56:24;2.53;;;1.73;;
35540;SDS011;21650;48.840;9.162;2022-09-17T17:58:53;3.33;;;1.40;;
35540;SDS011;21650;48.840;9.162;2022-09-17T18:01:23;1.20;;;0.90;;
35540;SDS011;21650;48.840;9.162;2022-09-17T18:04:00;2.73;;;1.23;;
35540;SDS011;21650;48.840;9.162;2022-09-17T18:06:27;4.53;;;1.23;;
35540;SDS011;21650;48.840;9.162;2022-09-17T18:08:54;3.03;;;2.20;;
35540;SDS011;21650;48.840;9.162;2022-09-17T18:11:20;5.50;;;1.40;;